Time;durP1;ratioP1;P1;durP2;ratioP2;P2;SDS_P1;SDS_P2;PMS_P1;PMS_P2;Temp;Humidity;BMP_temperature;BMP_pressure;BME280_temperature;BME280_humidity;BME280_pressure;Samples;Min_cycle;Max_cycle;Signal;HPM_P1;HPM_P2
2022/01/08 00:00:27;;;;;;;14.45;4.32;;;;;;;-149.78;100.00;50584.88;5073142;28;20044;-64
2022/01/08 00:02:53;;;;;;;15.68;3.80;;;;;;;-149.78;100.00;50522.28;5072961;28;20036;-64
2022/01/08 00:05:18;;;;;;;12.43;4.70;;;;;;;-149.78;100.00;50551.63;5073083;28;20044;-64
2022/01/08 00:07:44;;;;;;;10.27;3.92;;;;;;;-149.78;100.00;50565.31;5072993;28;20114;-64
2022/01/08 00:10:11;;;;;;;18.95;4.78;;;;;;;-149.78;100.00;50569.22;5072963;28;20101;-64
2022/01/08 00:12:37;;;;;;;15.27;5.07;;;;;;;-149.78;100.00;50565.31;5072947;28;20036;-64
2022/01/08 00:15:05;;;;;;;12.68;4.68;;;;;;;-149.78;100.00;50551.63;5072866;28;20029;-64
2022/01/08 00:17:31;;;;;;;18.25;4.95;;;;;;;-149.78;100.00;50557.50;5072914;28;20556;-64
2022/01/08 00:19:57;;;;;;;11.95;4.25;;;;;;;-149.78;100.00;50530.13;5072835;28;20123;-64
2022/01/08 00:22:22;;;;;;;14.40;4.47;;;;;;;-149.78;100.00;50563.38;5072369;28;20048;-64
2022/01/08 00:24:52;;;;;;;15.68;4.50;;;;;;;-149.78;100.00;50545.75;5072714;28;20181;-64
2022/01/08 00:27:19;;;;;;;15.18;4.72;;;;;;;-149.78;100.00;50561.41;5072637;28;20067;-64
2022/01/08 00:29:45;;;;;;;12.00;4.43;;;;;;;-149.78;100.00;50541.84;5072590;28;20064;-64
2022/01/08 00:32:10;;;;;;;14.52;4.50;;;;;;;-149.78;100.00;50549.69;5072676;28;20540;-64
2022/01/08 00:34:36;;;;;;;20.23;5.40;;;;;;;-149.78;100.00;50543.81;5072693;28;20048;-64
2022/01/08 00:37:02;;;;;;;16.85;5.35;;;;;;;-149.78;100.00;50526.22;5072771;28;20418;-64
2022/01/08 00:39:28;;;;;;;16.63;4.95;;;;;;;-149.78;100.00;50537.94;5072646;28;20040;-64
2022/01/08 00:41:54;;;;;;;14.00;5.63;;;;;;;-149.78;100.00;50553.59;5072745;28;20040;-64
2022/01/08 00:44:19;;;;;;;13.18;4.85;;;;;;;-149.78;100.00;50582.94;5054966;28;20040;-64
2022/01/08 00:46:45;;;;;;;15.35;4.82;;;;;;;-149.78;100.00;50553.59;5072442;28;20487;-64
2022/01/08 00:49:11;;;;;;;17.15;4.97;;;;;;;-149.78;100.00;50553.59;5072530;28;20044;-64
2022/01/08 00:51:36;;;;;;;13.65;4.40;;;;;;;-149.78;100.00;50541.84;5054638;28;20439;-64
2022/01/08 00:54:02;;;;;;;12.50;4.40;;;;;;;-149.78;100.00;50534.03;5076340;28;20040;-64
2022/01/08 00:56:28;;;;;;;14.32;4.70;;;;;;;-149.78;100.00;50551.63;5075981;28;20503;-64
2022/01/08 00:58:53;;;;;;;15.55;4.20;;;;;;;-149.78;100.00;50561.41;5075972;28;20529;-64
2022/01/08 01:01:19;;;;;;;12.70;4.40;;;;;;;-149.78;100.00;50553.59;5076021;28;20464;-64
2022/01/08 01:03:45;;;;;;;16.02;4.45;;;;;;;-149.78;100.00;50530.13;5075798;28;20039;-65
2022/01/08 01:06:10;;;;;;;16.60;3.95;;;;;;;-149.78;100.00;50549.69;5075805;28;20040;-65
2022/01/08 01:08:36;;;;;;;13.15;4.28;;;;;;;-149.78;100.00;50584.88;5076235;28;20403;-65
2022/01/08 01:11:02;;;;;;;9.23;3.53;;;;;;;-149.78;100.00;50557.50;5075917;28;20044;-65
2022/01/08 01:13:27;;;;;;;12.00;4.03;;;;;;;-149.78;100.00;50534.03;5075723;28;20479;-65
2022/01/08 01:15:53;;;;;;;11.80;3.80;;;;;;;-149.78;100.00;50553.59;5075574;28;20047;-65
2022/01/08 01:18:19;;;;;;;13.77;3.15;;;;;;;-149.78;100.00;50584.88;5075349;28;20036;-65
2022/01/08 01:20:45;;;;;;;11.45;3.22;;;;;;;-149.78;100.00;50561.41;5057898;28;20496;-65
2022/01/08 01:23:18;;;;;;;12.20;3.33;;;;;;;-149.78;100.00;50545.75;5037704;28;20051;-65
2022/01/08 01:25:54;;;;;;;13.30;3.00;;;;;;;-149.78;100.00;50561.41;5055610;28;20346;-65
2022/01/08 01:47:11;;;;;;;10.30;2.53;;;;;;;-149.78;100.00;50557.50;5055159;28;20082;-65
2022/01/08 01:49:43;;;;;;;7.28;2.75;;;;;;;-149.78;100.00;50561.41;5055146;28;20032;-65
2022/01/08 01:52:12;;;;;;;13.00;2.40;;;;;;;-149.78;100.00;50580.97;5055172;28;20041;-65
2022/01/08 01:54:42;;;;;;;6.10;2.15;;;;;;;-149.78;100.00;50547.72;5054994;28;20033;-65
2022/01/08 01:57:10;;;;;;;9.73;2.50;;;;;;;-149.78;100.00;50557.50;5054839;28;20044;-65
2022/01/08 01:59:37;;;;;;;11.32;2.22;;;;;;;-149.78;100.00;50553.59;5054741;28;20047;-65
2022/01/08 02:02:03;;;;;;;13.05;2.60;;;;;;;-149.78;100.00;50534.03;5053492;28;20476;-65
2022/01/08 02:04:30;;;;;;;7.22;2.63;;;;;;;-149.78;100.00;50534.03;5054035;28;20157;-65
2022/01/08 02:06:55;;;;;;;8.00;1.85;;;;;;;-149.78;100.00;50541.84;5054848;28;20041;-65
2022/01/08 02:09:21;;;;;;;5.50;2.10;;;;;;;-149.78;100.00;50549.69;5054615;28;20033;-61
2022/01/08 02:12:18;;;;;;;8.50;2.40;;;;;;;-149.78;100.00;50575.09;5054537;28;20033;-65
2022/01/08 02:14:47;;;;;;;11.88;2.30;;;;;;;-149.78;100.00;50557.50;5042707;28;20103;-65
2022/01/08 02:17:13;;;;;;;20.70;2.30;;;;;;;-149.78;100.00;50561.41;5046929;28;20446;-65
2022/01/08 02:19:40;;;;;;;10.10;2.45;;;;;;;-149.78;100.00;50559.47;5054427;28;20043;-66
2022/01/08 02:22:10;;;;;;;7.70;2.17;;;;;;;-149.78;100.00;50553.59;5054385;28;20041;-66
2022/01/08 02:24:36;;;;;;;8.23;2.72;;;;;;;-149.78;100.00;50545.75;5072075;28;20054;-66
2022/01/08 02:27:02;;;;;;;10.38;2.28;;;;;;;-149.78;100.00;50553.59;5073916;28;20546;-65
2022/01/08 02:29:28;;;;;;;9.68;2.40;;;;;;;-149.78;100.00;50535.97;5072685;28;20041;-65
2022/01/08 02:32:06;;;;;;;9.40;1.60;;;;;;;-149.78;100.00;50522.28;5073695;28;20043;-65
2022/01/08 02:34:32;;;;;;;8.45;2.25;;;;;;;-149.78;100.00;50549.69;5074046;28;20116;-65
2022/01/08 02:36:59;;;;;;;8.73;2.25;;;;;;;-149.78;100.00;50532.06;5074007;28;20032;-61
2022/01/08 02:39:26;;;;;;;9.82;2.55;;;;;;;-149.78;100.00;50553.59;5073987;28;20483;-61
2022/01/08 02:41:58;;;;;;;8.50;2.05;;;;;;;-149.78;100.00;50522.28;5073846;28;20438;-61
2022/01/08 02:44:25;;;;;;;6.65;2.08;;;;;;;-149.78;100.00;50541.84;5073873;28;20483;-61
2022/01/08 02:46:50;;;;;;;7.72;2.53;;;;;;;-149.78;100.00;50534.03;5073785;28;20492;-61
2022/01/08 02:49:16;;;;;;;8.32;1.88;;;;;;;-149.78;100.00;50541.84;5073928;28;20051;-61
2022/01/08 02:51:42;;;;;;;10.43;2.17;;;;;;;-149.78;100.00;50534.03;5073791;28;20035;-61
2022/01/08 02:54:10;;;;;;;9.18;2.30;;;;;;;-149.78;100.00;50553.59;5073866;28;20480;-61
2022/01/08 02:56:40;;;;;;;9.57;2.50;;;;;;;-149.78;100.00;50530.13;5073741;28;20037;-61
2022/01/08 02:59:07;;;;;;;9.40;2.40;;;;;;;-149.78;100.00;50545.75;5055879;28;20384;-61
2022/01/08 03:01:33;;;;;;;7.22;2.75;;;;;;;-149.78;100.00;50537.94;5073657;28;20060;-61
2022/01/08 03:03:59;;;;;;;8.30;2.47;;;;;;;-149.78;100.00;50553.59;5073321;28;20043;-61
2022/01/08 03:06:25;;;;;;;14.10;3.25;;;;;;;-149.78;100.00;50545.75;5074055;28;20040;-61
2022/01/08 03:08:51;;;;;;;9.10;1.98;;;;;;;-149.78;100.00;50573.16;5055926;28;20490;-61
2022/01/08 03:11:17;;;;;;;10.48;2.47;;;;;;;-149.78;100.00;50565.31;5073707;28;20448;-61
2022/01/08 03:13:42;;;;;;;9.52;1.85;;;;;;;-149.78;100.00;50537.94;5073625;28;20036;-61
2022/01/08 03:16:08;;;;;;;12.95;2.42;;;;;;;-149.78;100.00;50551.63;5072575;28;20060;-61
2022/01/08 03:18:36;;;;;;;15.93;2.75;;;;;;;-149.78;100.00;50534.03;5073311;28;20039;-61
2022/01/08 03:21:12;;;;;;;4.63;1.75;;;;;;;-149.78;100.00;50549.69;5061304;28;20041;-61
2022/01/08 03:23:46;;;;;;;15.10;2.30;;;;;;;-149.78;100.00;50549.69;5053309;28;20072;-61
2022/01/08 03:26:11;;;;;;;13.25;1.85;;;;;;;-149.78;100.00;50541.84;5053161;28;20037;-61
2022/01/08 03:28:37;;;;;;;7.88;2.00;;;;;;;-149.78;100.00;50530.13;5068659;28;20082;-61
2022/01/08 03:31:03;;;;;;;12.77;2.67;;;;;;;-149.78;100.00;50545.75;5055480;28;20317;-61
2022/01/08 03:33:28;;;;;;;7.05;1.65;;;;;;;-149.78;100.00;50553.59;5073285;28;20232;-61
2022/01/08 03:35:54;;;;;;;4.97;1.83;;;;;;;-149.78;100.00;50518.38;5072182;28;20032;-61
2022/01/08 03:38:21;;;;;;;8.93;1.85;;;;;;;-149.78;100.00;50553.59;5063956;28;20038;-61
2022/01/08 03:40:47;;;;;;;7.65;2.20;;;;;;;-149.78;100.00;50571.19;5064636;28;20115;-61
2022/01/08 03:43:13;;;;;;;8.25;2.15;;;;;;;-149.78;100.00;50561.41;5037078;28;20037;-61
2022/01/08 03:45:38;;;;;;;9.43;1.95;;;;;;;-149.78;100.00;50549.69;5072190;28;20452;-61
2022/01/08 03:50:33;;;;;;;8.50;2.30;;;;;;;-149.78;100.00;50565.31;5055958;28;20376;-61
2022/01/08 03:52:59;;;;;;;13.88;2.40;;;;;;;-149.78;100.00;50541.84;5073010;28;20047;-61
2022/01/08 03:55:24;;;;;;;13.15;2.90;;;;;;;-149.78;100.00;50575.09;5073210;28;20103;-61
2022/01/08 03:57:50;;;;;;;5.18;2.10;;;;;;;-149.78;100.00;50541.84;5065254;28;20127;-61
2022/01/08 04:00:15;;;;;;;13.15;2.22;;;;;;;-149.78;100.00;50557.50;5072735;28;20040;-61
2022/01/08 04:02:42;;;;;;;7.25;2.10;;;;;;;-149.78;100.00;50565.31;5071054;28;20448;-61
2022/01/08 04:05:08;;;;;;;9.15;2.20;;;;;;;-149.78;100.00;50555.53;5072616;28;20107;-61
2022/01/08 04:07:33;;;;;;;14.52;2.50;;;;;;;-149.78;100.00;50571.19;5073104;28;20029;-61
2022/01/08 04:09:59;;;;;;;8.18;2.25;;;;;;;-149.78;100.00;50553.59;5073169;28;20454;-61
2022/01/08 04:12:40;;;;;;;9.38;2.50;;;;;;;-149.78;100.00;50534.03;5072761;28;20028;-61
2022/01/08 04:15:20;;;;;;;14.18;2.15;;;;;;;-149.78;100.00;50537.94;5068249;28;20117;-61
2022/01/08 04:17:46;;;;;;;8.15;1.90;;;;;;;-149.78;100.00;50545.75;5066826;28;20450;-61
2022/01/08 04:20:11;;;;;;;11.32;2.50;;;;;;;-149.78;100.00;50537.94;5072560;28;20036;-61
2022/01/08 04:22:37;;;;;;;6.88;1.77;;;;;;;-149.78;100.00;50579.00;5072698;28;20070;-61
2022/01/08 04:25:03;;;;;;;11.13;2.47;;;;;;;-149.78;100.00;50537.94;5072597;28;20422;-61
2022/01/08 04:27:28;;;;;;;8.32;1.95;;;;;;;-149.78;100.00;50573.16;5073829;28;20033;-61
2022/01/08 04:29:54;;;;;;;7.22;1.67;;;;;;;-149.78;100.00;50545.75;5076699;28;20484;-61
2022/01/08 04:32:20;;;;;;;7.68;2.00;;;;;;;-149.78;100.00;50549.69;5076603;28;20042;-61
2022/01/08 04:34:45;;;;;;;8.35;1.60;;;;;;;-149.78;100.00;50561.41;5076589;28;20093;-61
2022/01/08 04:37:11;;;;;;;6.68;1.42;;;;;;;-149.78;100.00;50573.16;5076585;28;20044;-61
2022/01/08 04:39:37;;;;;;;9.43;1.77;;;;;;;-149.78;100.00;50553.59;5076296;28;20422;-61
2022/01/08 04:42:03;;;;;;;9.15;2.22;;;;;;;-149.78;100.00;50557.50;5075679;28;20047;-61
2022/01/08 04:44:28;;;;;;;9.65;2.22;;;;;;;-149.78;100.00;50551.63;5075601;28;20037;-61
2022/01/08 04:46:54;;;;;;;8.85;1.70;;;;;;;-149.78;100.00;50561.41;5067855;28;20419;-61
2022/01/08 04:49:19;;;;;;;6.28;1.73;;;;;;;-149.78;100.00;50530.13;5076204;28;20396;-61
2022/01/08 04:51:45;;;;;;;8.68;2.03;;;;;;;-149.78;100.00;50539.91;5076186;28;20041;-61
2022/01/08 04:54:11;;;;;;;6.35;1.90;;;;;;;-149.78;100.00;50530.13;5076043;28;20021;-61
2022/01/08 04:56:36;;;;;;;9.73;2.28;;;;;;;-149.78;100.00;50580.97;5076138;28;20617;-61
2022/01/08 04:59:02;;;;;;;7.15;2.25;;;;;;;-149.78;100.00;50545.75;5076320;28;20372;-61
2022/01/08 05:01:28;;;;;;;11.52;2.13;;;;;;;-149.78;100.00;50577.06;5076224;28;20028;-61
2022/01/08 05:03:54;;;;;;;6.10;2.10;;;;;;;-149.78;100.00;50545.75;5075856;28;20398;-61
2022/01/08 05:06:21;;;;;;;11.82;2.15;;;;;;;-149.78;100.00;50541.84;5076125;28;20036;-62
2022/01/08 05:08:47;;;;;;;7.10;2.53;;;;;;;-149.78;100.00;50510.56;5075900;28;20142;-61
2022/01/08 05:11:12;;;;;;;13.15;2.78;;;;;;;-149.78;100.00;50553.59;5058267;28;20059;-61
2022/01/08 05:13:39;;;;;;;7.03;2.40;;;;;;;-149.78;100.00;50541.84;5075749;28;20084;-61
2022/01/08 05:16:05;;;;;;;11.65;3.05;;;;;;;-149.78;100.00;50494.91;5075807;28;20044;-61
2022/01/08 05:18:32;;;;;;;10.43;2.67;;;;;;;-149.78;100.00;50549.69;5076024;28;20054;-61
2022/01/08 05:21:12;;;;;;;8.82;3.65;;;;;;;-149.78;100.00;50534.03;5075545;28;20032;-61
2022/01/08 05:23:37;;;;;;;11.18;3.10;;;;;;;-149.78;100.00;50557.50;5075371;28;20044;-61
2022/01/08 05:26:03;;;;;;;14.77;4.07;;;;;;;-149.78;100.00;50551.63;5075538;28;20078;-61
2022/01/08 05:28:29;;;;;;;10.23;3.17;;;;;;;-149.78;100.00;50569.22;5075191;28;20036;-61
2022/01/08 05:30:55;;;;;;;8.68;3.30;;;;;;;-149.78;100.00;50541.84;5075188;28;20430;-61
2022/01/08 05:33:20;;;;;;;11.88;3.90;;;;;;;-149.78;100.00;50557.50;5074176;28;20040;-61
2022/01/08 05:35:46;;;;;;;8.80;3.45;;;;;;;-149.78;100.00;50549.69;5075320;28;20048;-61
2022/01/08 05:38:12;;;;;;;13.02;4.32;;;;;;;-149.78;100.00;50549.69;5074212;28;20037;-61
2022/01/08 05:40:38;;;;;;;15.15;3.97;;;;;;;-149.78;100.00;50524.25;5074379;28;20123;-61
2022/01/08 05:43:03;;;;;;;10.57;4.47;;;;;;;-149.78;100.00;50545.75;5074890;28;20123;-61
2022/01/08 05:45:29;;;;;;;9.23;3.90;;;;;;;-149.78;100.00;50524.25;5075039;28;20082;-61
2022/01/08 05:47:55;;;;;;;16.38;3.83;;;;;;;-149.78;100.00;50561.41;5074952;28;20041;-61
2022/01/08 05:50:20;;;;;;;11.05;3.92;;;;;;;-149.78;100.00;50561.41;5057083;28;20036;-61
2022/01/08 05:52:48;;;;;;;14.52;5.22;;;;;;;-149.78;100.00;50575.09;5056621;28;20048;-61
2022/01/08 05:55:14;;;;;;;9.10;4.22;;;;;;;-149.78;100.00;50537.94;5056760;28;20033;-61
2022/01/08 05:57:41;;;;;;;13.05;4.13;;;;;;;-149.78;100.00;50530.13;5074650;28;20040;-61
2022/01/08 06:00:08;;;;;;;11.07;4.30;;;;;;;-149.78;100.00;50545.75;5074790;28;20037;-61
2022/01/08 06:02:36;;;;;;;15.68;4.80;;;;;;;-149.78;100.00;50565.31;5056607;28;20044;-61
2022/01/08 06:05:02;;;;;;;9.88;4.18;;;;;;;-149.78;100.00;50557.50;5074062;28;20047;-61
2022/01/08 06:07:28;;;;;;;15.88;4.35;;;;;;;-149.78;100.00;50592.72;5074648;28;20062;-61
2022/01/08 06:09:54;;;;;;;12.98;4.05;;;;;;;-149.78;100.00;50557.50;5074527;28;20051;-61
2022/01/08 06:12:19;;;;;;;12.20;4.20;;;;;;;-149.78;100.00;50584.88;5074425;28;20043;-61
2022/01/08 06:14:45;;;;;;;16.25;4.95;;;;;;;-149.78;100.00;50549.69;5074323;28;20040;-61
2022/01/08 06:17:11;;;;;;;17.80;5.53;;;;;;;-149.78;100.00;50535.97;5074711;28;20518;-61
2022/01/08 06:19:36;;;;;;;13.23;5.50;;;;;;;-149.78;100.00;50526.22;5074265;28;20033;-61
2022/01/08 06:22:02;;;;;;;16.27;5.43;;;;;;;-149.78;100.00;50577.06;5074180;28;20368;-61
2022/01/08 06:24:28;;;;;;;15.80;5.90;;;;;;;-149.78;100.00;50534.03;5074321;28;20048;-61
2022/01/08 06:26:54;;;;;;;13.93;6.22;;;;;;;-149.78;100.00;50534.03;5073930;28;20124;-61
2022/01/08 06:29:20;;;;;;;16.35;6.00;;;;;;;-149.78;100.00;50561.41;5056635;28;20573;-61
2022/01/08 06:31:46;;;;;;;17.52;6.45;;;;;;;-149.78;100.00;50561.41;5074189;28;20124;-65
2022/01/08 06:34:11;;;;;;;18.02;7.18;;;;;;;-149.78;100.00;50535.97;5074279;28;20035;-65
2022/01/08 06:36:37;;;;;;;28.00;7.57;;;;;;;-149.78;100.00;50600.53;5074154;28;20036;-65
2022/01/08 06:39:03;;;;;;;17.10;7.32;;;;;;;-149.78;100.00;50559.47;5073924;28;20032;-65
2022/01/08 06:41:29;;;;;;;27.00;8.25;;;;;;;-149.78;100.00;50553.59;5073265;28;20028;-65
2022/01/08 06:43:56;;;;;;;22.42;8.10;;;;;;;-149.78;100.00;50580.97;5055580;28;20040;-65
2022/01/08 06:46:23;;;;;;;27.52;9.43;;;;;;;-149.78;100.00;50518.38;5073619;28;20036;-65
2022/01/08 06:48:48;;;;;;;24.55;8.93;;;;;;;-149.78;100.00;50541.84;5056000;28;20131;-65
2022/01/08 06:51:14;;;;;;;29.15;9.27;;;;;;;-149.78;100.00;50545.75;5073517;28;20040;-65
2022/01/08 06:53:39;;;;;;;34.83;9.70;;;;;;;-149.78;100.00;50539.91;5073496;28;20380;-65
2022/01/08 06:56:05;;;;;;;30.88;10.88;;;;;;;-149.78;100.00;50555.53;5073815;28;20472;-65
2022/01/08 06:58:31;;;;;;;32.22;11.50;;;;;;;-149.78;100.00;50526.22;5073401;28;20040;-65
2022/01/08 07:00:58;;;;;;;33.13;11.98;;;;;;;-149.78;100.00;50553.59;5073315;28;20067;-65
2022/01/08 07:03:23;;;;;;;35.53;13.40;;;;;;;-149.78;100.00;50553.59;5073286;28;20036;-65
2022/01/08 07:05:49;;;;;;;36.03;12.27;;;;;;;-149.78;100.00;50553.59;5073385;28;20089;-65
2022/01/08 07:08:15;;;;;;;41.08;14.18;;;;;;;-149.78;100.00;50553.59;5072245;28;20040;-61
2022/01/08 07:10:41;;;;;;;43.55;14.98;;;;;;;-149.78;100.00;50545.75;5073203;28;20570;-61
2022/01/08 07:13:07;;;;;;;39.20;14.20;;;;;;;-149.78;100.00;50526.22;5073462;28;20036;-61
2022/01/08 07:15:32;;;;;;;48.00;15.05;;;;;;;-149.78;100.00;50573.16;5073576;28;20392;-65
2022/01/08 07:17:58;;;;;;;41.20;15.27;;;;;;;-149.78;100.00;50549.69;5073603;28;20044;-65
2022/01/08 07:20:24;;;;;;;39.85;14.00;;;;;;;-149.78;100.00;50534.03;5073509;28;20052;-65
2022/01/08 07:22:49;;;;;;;49.03;16.98;;;;;;;-149.78;100.00;50518.38;5073325;28;20425;-65
2022/01/08 07:25:16;;;;;;;48.53;15.20;;;;;;;-149.78;100.00;50541.84;5073477;28;20040;-65
2022/01/08 07:27:42;;;;;;;36.92;13.90;;;;;;;-149.78;100.00;50573.16;5073028;28;20033;-65
2022/01/08 07:30:09;;;;;;;38.17;15.40;;;;;;;-149.78;100.00;50553.59;5073395;28;20036;-65
2022/01/08 07:32:46;;;;;;;50.95;16.05;;;;;;;-149.78;100.00;50545.75;5072867;28;20423;-66
2022/01/08 07:35:14;;;;;;;38.42;15.05;;;;;;;-149.78;100.00;50534.03;5055277;28;20489;-66
2022/01/08 07:37:41;;;;;;;37.80;14.82;;;;;;;-149.78;100.00;50547.72;5073181;28;20036;-66
2022/01/08 07:40:09;;;;;;;40.67;13.20;;;;;;;-149.78;100.00;50522.28;5073213;28;20071;-66
2022/01/08 07:42:35;;;;;;;39.08;12.90;;;;;;;-149.78;100.00;50534.03;5073244;28;20041;-66
2022/01/08 07:45:00;;;;;;;39.22;13.13;;;;;;;-149.78;100.00;50528.16;5073057;28;20045;-66
2022/01/08 07:47:26;;;;;;;35.55;13.95;;;;;;;-149.78;100.00;50561.41;5072927;28;20040;-66
2022/01/08 07:49:51;;;;;;;37.63;13.30;;;;;;;-149.78;100.00;50537.94;5073154;28;20036;-66
2022/01/08 07:52:17;;;;;;;39.40;13.10;;;;;;;-149.78;100.00;50569.22;5073215;28;20068;-66
2022/01/08 07:54:43;;;;;;;35.10;11.95;;;;;;;-149.78;100.00;50537.94;5054961;28;20912;-66
2022/01/08 07:57:11;;;;;;;31.83;12.27;;;;;;;-149.78;100.00;50535.97;5073136;28;20433;-66
2022/01/08 07:59:36;;;;;;;33.85;11.90;;;;;;;-149.78;100.00;50545.75;5073084;28;20123;-66
2022/01/08 08:02:02;;;;;;;38.30;12.88;;;;;;;-149.78;100.00;50551.63;5073860;28;20050;-60
2022/01/08 08:04:28;;;;;;;35.13;12.10;;;;;;;-149.78;100.00;50532.06;5077074;28;20038;-61
2022/01/08 08:06:54;;;;;;;31.52;11.23;;;;;;;-149.78;100.00;50522.28;5077451;28;20032;-61
2022/01/08 08:09:20;;;;;;;32.05;11.98;;;;;;;-149.78;100.00;50537.94;5077209;28;20040;-61
2022/01/08 08:11:45;;;;;;;36.88;11.60;;;;;;;-149.78;100.00;50557.50;5077207;28;20093;-61
2022/01/08 08:14:11;;;;;;;31.00;11.82;;;;;;;-149.78;100.00;50565.31;5059005;28;20126;-61
2022/01/08 08:16:37;;;;;;;26.88;11.80;;;;;;;-149.78;100.00;50534.03;5058888;28;20040;-61
2022/01/08 08:19:03;;;;;;;31.88;12.80;;;;;;;-149.78;100.00;50557.50;5058834;28;20142;-61
2022/01/08 08:21:29;;;;;;;35.53;11.30;;;;;;;-149.78;100.00;50537.94;5072972;28;20040;-61
2022/01/08 08:23:55;;;;;;;34.22;11.98;;;;;;;-149.78;100.00;50539.91;5043490;28;20053;-61
2022/01/08 08:26:22;;;;;;;35.30;11.88;;;;;;;-149.78;100.00;50545.75;5064984;28;20116;-61
2022/01/08 08:28:47;;;;;;;35.53;10.82;;;;;;;-149.78;100.00;50559.47;5049707;28;20551;-61
2022/01/08 08:31:13;;;;;;;32.20;11.25;;;;;;;-149.78;100.00;50522.28;5067516;28;20384;-61
2022/01/08 08:33:39;;;;;;;33.50;11.70;;;;;;;-149.78;100.00;50522.28;5037429;28;20029;-61
2022/01/08 08:36:06;;;;;;;28.90;11.20;;;;;;;-149.78;100.00;50557.50;5066634;28;20036;-61
2022/01/08 08:38:32;;;;;;;36.55;12.13;;;;;;;-149.78;100.00;50530.13;5069206;28;20128;-61
2022/01/08 08:40:57;;;;;;;32.13;12.93;;;;;;;-149.78;100.00;50498.81;5046022;28;20040;-61
2022/01/08 08:43:23;;;;;;;36.13;12.30;;;;;;;-149.78;100.00;50530.13;5041805;28;20461;-61
2022/01/08 08:45:50;;;;;;;35.33;12.45;;;;;;;-149.78;100.00;50545.75;5056715;28;20057;-61
2022/01/08 08:48:16;;;;;;;34.03;11.23;;;;;;;-149.78;100.00;50553.59;5061628;28;20086;-66
2022/01/08 08:50:43;;;;;;;32.95;11.63;;;;;;;-149.78;100.00;50541.84;5064353;28;20033;-66
2022/01/08 08:53:09;;;;;;;30.95;10.07;;;;;;;-149.78;100.00;50545.75;5064505;28;20033;-66
2022/01/08 08:55:35;;;;;;;30.80;11.00;;;;;;;-149.78;100.00;50510.56;5065107;28;20482;-65
2022/01/08 08:58:01;;;;;;;32.38;11.00;;;;;;;-149.78;100.00;50534.03;5066453;28;20171;-66
2022/01/08 09:00:26;;;;;;;28.48;10.02;;;;;;;-149.78;100.00;50573.16;5066541;28;20041;-66
2022/01/08 09:02:52;;;;;;;28.55;9.80;;;;;;;-149.78;100.00;50510.56;5048335;28;20048;-66
2022/01/08 09:05:18;;;;;;;35.22;10.40;;;;;;;-149.78;100.00;50491.00;5062159;28;20032;-65
2022/01/08 09:07:44;;;;;;;28.38;9.55;;;;;;;-149.78;100.00;50537.94;5045122;28;20028;-66
2022/01/08 09:10:10;;;;;;;27.55;9.70;;;;;;;-149.78;100.00;50553.59;5064201;28;20793;-65
2022/01/08 09:12:38;;;;;;;27.52;9.48;;;;;;;-149.78;100.00;50524.25;5063807;28;20033;-65
2022/01/08 09:15:06;;;;;;;24.15;8.90;;;;;;;-149.78;100.00;50557.50;5047536;28;20033;-66
2022/01/08 09:17:32;;;;;;;18.25;7.35;;;;;;;-149.78;100.00;50510.56;5057956;28;20025;-66
2022/01/08 09:19:57;;;;;;;22.25;8.45;;;;;;;-149.78;100.00;50534.03;5059214;28;20721;-66
2022/01/08 09:22:23;;;;;;;20.85;7.72;;;;;;;-149.78;100.00;50539.91;5064736;28;20044;-66
2022/01/08 09:24:50;;;;;;;15.05;6.45;;;;;;;-149.78;100.00;50510.56;5061703;28;20052;-66
2022/01/08 09:27:15;;;;;;;16.48;6.50;;;;;;;-149.78;100.00;50549.69;5050112;28;20040;-66
2022/01/08 09:29:41;;;;;;;16.30;6.47;;;;;;;-149.78;100.00;50506.66;5064435;28;20040;-66
2022/01/08 09:32:08;;;;;;;17.10;6.13;;;;;;;-149.78;100.00;50553.59;5064237;28;20035;-66
2022/01/08 09:34:34;;;;;;;13.32;5.57;;;;;;;-149.78;100.00;50514.47;5047549;28;20040;-66
2022/01/08 09:37:00;;;;;;;14.48;5.68;;;;;;;-149.78;100.00;50545.75;5064970;28;20123;-66
2022/01/08 09:39:25;;;;;;;15.00;5.47;;;;;;;-149.78;100.00;50522.28;5063641;28;20159;-66
2022/01/08 09:41:53;;;;;;;14.55;4.75;;;;;;;-149.78;100.00;50512.50;5065790;28;20033;-66
2022/01/08 09:44:19;;;;;;;13.18;4.72;;;;;;;-149.78;100.00;50510.56;5073252;28;20110;-66
2022/01/08 09:46:45;;;;;;;13.77;5.05;;;;;;;-149.78;100.00;50522.28;5062539;28;20482;-66
2022/01/08 09:49:11;;;;;;;9.77;4.35;;;;;;;-149.78;100.00;50543.81;5066016;28;20063;-66
2022/01/08 09:51:37;;;;;;;11.18;4.40;;;;;;;-149.78;100.00;50514.47;5044564;28;20128;-67
2022/01/08 09:54:03;;;;;;;9.38;3.88;;;;;;;-149.78;100.00;50522.28;5062223;28;20410;-67
2022/01/08 09:56:31;;;;;;;10.18;3.65;;;;;;;-149.78;100.00;50510.56;5058436;28;20037;-66
2022/01/08 09:58:59;;;;;;;8.98;4.28;;;;;;;-149.78;100.00;50541.84;5069486;28;20032;-66
2022/01/08 10:01:31;;;;;;;11.90;4.38;;;;;;;-149.78;100.00;50563.38;5059941;28;20560;-65
2022/01/08 10:04:02;;;;;;;12.70;4.38;;;;;;;-149.78;100.00;50516.44;5062220;28;20098;-65
2022/01/08 10:06:34;;;;;;;10.82;4.10;;;;;;;-149.78;100.00;50537.94;5067887;28;20121;-66
2022/01/08 10:09:00;;;;;;;11.02;3.80;;;;;;;-149.78;100.00;50526.22;5038363;28;20032;-66
2022/01/08 10:11:27;;;;;;;8.90;3.85;;;;;;;-149.78;100.00;50510.56;5065977;28;20036;-67
2022/01/08 10:14:05;;;;;;;9.43;4.10;;;;;;;-149.78;100.00;50541.84;5062758;28;20117;-63
2022/01/08 10:19:21;;;;;;;9.88;3.88;;;;;;;-149.78;100.00;50557.50;5063141;28;20349;-63
2022/01/08 10:21:47;;;;;;;9.32;3.65;;;;;;;-149.78;100.00;50494.91;5059822;28;20028;-63
2022/01/08 10:24:26;;;;;;;11.77;4.00;;;;;;;-149.78;100.00;50520.34;5060199;28;20498;-63
2022/01/08 10:27:02;;;;;;;10.02;3.85;;;;;;;-149.78;100.00;50551.63;5045743;28;20039;-62
2022/01/08 10:29:27;;;;;;;8.85;3.63;;;;;;;-149.78;100.00;50518.38;5066583;28;20037;-61
2022/01/08 10:31:54;;;;;;;8.98;3.88;;;;;;;-149.78;100.00;50537.94;5064715;28;20158;-62
2022/01/08 10:34:23;;;;;;;8.50;3.63;;;;;;;-149.78;100.00;50514.47;5069437;28;20048;-62
2022/01/08 10:37:00;;;;;;;9.25;3.70;;;;;;;-149.78;100.00;50508.59;5064073;28;20079;-64
2022/01/08 10:39:38;;;;;;;9.13;3.40;;;;;;;-149.78;100.00;50541.84;5045584;28;20036;-62
2022/01/08 10:42:14;;;;;;;6.55;3.22;;;;;;;-149.78;100.00;50537.94;5051679;28;20452;-62
2022/01/08 10:44:42;;;;;;;12.85;3.30;;;;;;;-149.78;100.00;50508.59;5067132;28;20079;-62
2022/01/08 10:47:17;;;;;;;11.18;3.83;;;;;;;-149.78;100.00;50530.13;5054713;28;20035;-62
2022/01/08 10:49:48;;;;;;;9.85;3.67;;;;;;;-149.78;100.00;50477.31;5061377;28;20028;-62
2022/01/08 10:52:19;;;;;;;10.45;3.55;;;;;;;-149.78;100.00;50510.56;5069855;28;20020;-63
2022/01/08 10:54:56;;;;;;;9.48;3.28;;;;;;;-149.78;100.00;50498.81;5062853;28;20036;-63
2022/01/08 10:57:38;;;;;;;7.65;3.72;;;;;;;-149.78;100.00;50528.16;5054232;28;20028;-63
2022/01/08 11:00:06;;;;;;;9.73;3.33;;;;;;;-149.78;100.00;50526.22;5056163;28;20033;-63
2022/01/08 11:02:32;;;;;;;8.57;3.15;;;;;;;-149.78;100.00;50537.94;5059184;28;20123;-63
2022/01/08 11:04:57;;;;;;;8.07;3.08;;;;;;;-149.78;100.00;50502.75;5056707;28;20116;-63
2022/01/08 11:07:29;;;;;;;11.13;2.95;;;;;;;-149.78;100.00;50467.53;5056484;28;20032;-63
2022/01/08 11:10:02;;;;;;;5.10;2.38;;;;;;;-149.78;100.00;50534.03;5060748;28;20033;-63
2022/01/08 11:12:35;;;;;;;9.32;3.22;;;;;;;-149.78;100.00;50479.28;5056572;28;20032;-62
2022/01/08 11:17:43;;;;;;;5.87;2.90;;;;;;;-149.78;100.00;50506.66;5056740;28;20032;-62
2022/01/08 11:20:12;;;;;;;5.35;2.80;;;;;;;-149.78;100.00;50479.28;5064731;28;20044;-62
2022/01/08 11:22:50;;;;;;;10.60;3.40;;;;;;;-149.78;100.00;50502.75;5061662;28;20044;-62
2022/01/08 11:25:24;;;;;;;4.88;2.70;;;;;;;-149.78;100.00;50485.13;5059460;28;20036;-62
2022/01/08 11:28:09;;;;;;;8.30;3.03;;;;;;;-149.78;100.00;50475.34;5053194;28;20044;-63